| Date | Time | Temp. (oF) | Dew Point (oF) | Rel. Hum. (%) | Press. (in.) | Wind Dir. | Wind Speed (mph) | Hourly Rainfall (in.) |
|
|---|---|---|---|---|---|---|---|---|---|
| 1 | 08/02 | 00:00 | 68 | 66 | 95 | 29.97 | SSE | 0 | 0.00 |
| 2 | 08/01 | 23:00 | 73 | 71 | 94 | 29.98 | NNE | 4 | 0.00 |
| 3 | 08/01 | 22:00 | 73 | 70 | 91 | 29.97 | E | 0 | 0.00 |
| 4 | 08/01 | 21:00 | 74 | 70 | 90 | 29.94 | ESE | 2 | 0.00 |
| 5 | 08/01 | 20:00 | 76 | 71 | 86 | 29.93 | ESE | 5 | 0.00 |
| 6 | 08/01 | 19:00 | 77 | 72 | 86 | 29.91 | ENE | 1 | 0.01 |
| 7 | 08/01 | 18:00 | 77 | 71 | 84 | 29.90 | S | 3 | 0.00 |
| 8 | 08/01 | 17:00 | 79 | 71 | 79 | 29.91 | ESE | 2 | 0.00 |
| 9 | 08/01 | 16:00 | 79 | 72 | 80 | 29.91 | ESE | 8 | 0.00 |
| 10 | 08/01 | 15:00 | 79 | 70 | 75 | 29.94 | E | 1 | 0.00 |
| 11 | 08/01 | 14:00 | 77 | 71 | 82 | 29.94 | E | 4 | 0.00 |
| 12 | 08/01 | 13:00 | 78 | 70 | 77 | 29.95 | E | 8 | 0.00 |
| 13 | 08/01 | 12:00 | 83 | 73 | 73 | 29.93 | NNE | 4 | 0.00 |
| 14 | 08/01 | 11:00 | 80 | 73 | 80 | 29.94 | SW | 0 | 0.00 |
| 15 | 08/01 | 10:00 | 78 | 75 | 91 | 29.95 | ESE | 2 | 0.00 |
| 16 | 08/01 | 09:00 | 75 | 72 | 93 | 29.95 | ENE | 0 | 0.00 |
| 17 | 08/01 | 08:00 | 73 | 72 | 98 | 29.95 | E | 1 | 0.00 |
| 18 | 08/01 | 07:00 | 72 | 71 | 98 | 29.94 | ESE | 1 | 0.00 |
| 19 | 08/01 | 06:00 | 72 | 71 | 97 | 29.92 | NE | 1 | 0.00 |
| 20 | 08/01 | 05:00 | 71 | 69 | 96 | 29.91 | E | 3 | 0.00 |
| 21 | 08/01 | 04:00 | 71 | 69 | 94 | 29.90 | ENE | 0 | 0.00 |
| 22 | 08/01 | 03:00 | 72 | 69 | 92 | 29.89 | NNE | 0 | 0.00 |
| 23 | 08/01 | 02:00 | 73 | 70 | 92 | 29.90 | NE | 0 | 0.00 |
| 24 | 08/01 | 01:00 | 74 | 71 | 92 | 29.92 | NE | 0 | 0.00 |